createdAt,value
2022-12-08T00:01:48.925Z,73.04
2022-12-08T00:04:29.746Z,73.13
2022-12-08T00:07:30.023Z,72.64
2022-12-08T00:10:46.678Z,72.47
2022-12-08T00:13:13.900Z,72.28
2022-12-08T00:15:54.740Z,71.96
2022-12-08T00:18:35.921Z,71.76
2022-12-08T00:21:23.757Z,71.85
2022-12-08T00:24:11.735Z,71.95
2022-12-08T00:26:53.751Z,71.83
2022-12-08T00:29:34.887Z,71.68
2022-12-08T00:32:15.812Z,71.47
2022-12-08T00:35:10.737Z,71.29
2022-12-08T00:38:01.061Z,71.29
2022-12-08T00:40:35.880Z,71.57
2022-12-08T00:43:23.910Z,71.75
2022-12-08T00:46:05.971Z,72.00
2022-12-08T00:48:53.750Z,72.07
2022-12-08T00:51:35.730Z,72.48
2022-12-08T00:54:31.746Z,72.88
2022-12-08T00:57:19.732Z,72.90
2022-12-08T01:00:00.845Z,72.87
2022-12-08T01:02:55.788Z,73.20
2022-12-08T01:05:43.736Z,73.37
2022-12-08T01:08:25.797Z,73.74
2022-12-08T01:11:16.926Z,74.12
2022-12-08T01:13:52.905Z,74.22
2022-12-08T01:16:42.767Z,74.55
2022-12-08T01:19:30.731Z,74.74
2022-12-08T01:22:05.173Z,74.75
2022-12-08T01:24:52.716Z,74.76
2022-12-08T01:27:27.185Z,74.80
2022-12-08T01:30:14.727Z,75.00
2022-12-08T01:32:49.212Z,74.94
2022-12-08T01:35:36.847Z,74.83
2022-12-08T01:38:12.290Z,74.53
2022-12-08T01:40:59.919Z,74.31
2022-12-08T01:43:59.441Z,73.99
2022-12-08T01:46:49.733Z,73.89
2022-12-08T01:49:32.657Z,73.96
2022-12-08T01:52:35.739Z,74.06
2022-12-08T01:55:40.871Z,74.45
2022-12-08T01:58:36.897Z,74.99
2022-12-08T02:01:12.643Z,75.22
2022-12-08T02:04:15.841Z,75.56
2022-12-08T02:06:52.168Z,75.97
2022-12-08T02:09:39.748Z,76.41
2022-12-08T02:12:14.231Z,76.52
2022-12-08T02:15:05.045Z,76.41
2022-12-08T02:17:53.732Z,76.30
2022-12-08T02:20:45.030Z,76.29
2022-12-08T02:23:29.893Z,76.38
2022-12-08T02:26:27.866Z,76.50
2022-12-08T02:29:18.876Z,76.76
2022-12-08T02:32:04.967Z,76.46
2022-12-08T02:34:58.707Z,76.33
2022-12-08T02:38:11.970Z,76.15
2022-12-08T02:41:11.699Z,76.16
2022-12-08T02:43:54.853Z,76.26
2022-12-08T02:46:46.746Z,76.18
2022-12-08T02:49:21.872Z,76.30
2022-12-08T02:52:18.916Z,76.17
2022-12-08T02:55:00.408Z,76.14
2022-12-08T02:58:06.728Z,76.29
2022-12-08T03:01:25.884Z,76.52
2022-12-08T03:04:58.837Z,76.53
2022-12-08T03:07:56.949Z,76.50
2022-12-08T03:10:37.066Z,76.37
2022-12-08T03:13:28.899Z,76.41
2022-12-08T03:16:04.044Z,76.52
2022-12-08T03:18:57.902Z,76.63
2022-12-08T03:21:33.043Z,76.78
2022-12-08T03:24:22.819Z,76.92
2022-12-08T03:27:00.844Z,77.02
2022-12-08T03:29:48.712Z,77.04
2022-12-08T03:33:05.691Z,76.97
2022-12-08T03:35:54.841Z,77.09
2022-12-08T03:38:36.839Z,77.09
2022-12-08T03:41:31.838Z,77.09
2022-12-08T03:44:19.880Z,77.35
2022-12-08T03:46:55.015Z,77.66
2022-12-08T03:49:42.719Z,77.86
2022-12-08T03:52:17.986Z,78.02
2022-12-08T03:55:05.819Z,78.14
2022-12-08T03:57:47.903Z,78.25
2022-12-08T04:00:42.834Z,78.39
2022-12-08T04:03:30.859Z,78.28
2022-12-08T04:06:05.995Z,78.16
2022-12-08T04:08:53.910Z,78.10
2022-12-08T04:11:28.827Z,78.02
2022-12-08T04:14:16.801Z,78.05
2022-12-08T04:16:58.897Z,77.98
2022-12-08T04:19:53.687Z,78.08
2022-12-08T04:22:41.692Z,78.09
2022-12-08T04:25:16.832Z,78.02
2022-12-08T04:28:04.808Z,77.98
2022-12-08T04:30:47.013Z,77.93
2022-12-08T04:33:34.850Z,78.13
2022-12-08T04:36:11.926Z,78.24
2022-12-08T04:38:59.867Z,78.31
2022-12-08T04:41:35.000Z,78.34
2022-12-08T04:44:22.834Z,78.27
2022-12-08T04:47:04.853Z,78.72
2022-12-08T04:49:59.832Z,78.80
2022-12-08T04:52:47.696Z,78.33
2022-12-08T04:55:22.821Z,78.42
2022-12-08T04:58:10.664Z,78.52
2022-12-08T05:00:44.870Z,78.53
2022-12-08T05:03:32.886Z,78.33
2022-12-08T05:06:08.028Z,78.32
2022-12-08T05:08:55.863Z,78.31
2022-12-08T05:11:31.100Z,78.35
2022-12-08T05:14:19.691Z,78.42
2022-12-08T05:16:55.300Z,78.50
2022-12-08T05:19:43.851Z,78.38
2022-12-08T05:22:18.986Z,78.39
2022-12-08T05:25:06.819Z,78.46
2022-12-08T05:27:42.572Z,78.68
2022-12-08T05:30:30.815Z,78.85
2022-12-08T05:33:05.951Z,78.87
2022-12-08T05:35:55.068Z,78.76
2022-12-08T05:38:36.882Z,78.77
2022-12-08T05:41:33.872Z,78.51
2022-12-08T05:44:21.873Z,78.46
2022-12-08T05:47:03.675Z,78.48
2022-12-08T05:49:58.857Z,78.25
2022-12-08T05:52:46.729Z,78.04
2022-12-08T05:55:21.819Z,77.81
2022-12-08T05:58:09.656Z,77.91
2022-12-08T06:00:51.680Z,78.10
2022-12-08T06:03:47.664Z,78.39
2022-12-08T06:06:36.667Z,78.49
2022-12-08T06:09:13.280Z,78.25
2022-12-08T06:12:01.872Z,78.29
2022-12-08T06:14:49.742Z,77.79
2022-12-08T06:17:25.072Z,77.81
2022-12-08T06:20:12.878Z,77.94
2022-12-08T06:22:48.154Z,77.97
2022-12-08T06:25:36.658Z,77.87
2022-12-08T06:28:17.652Z,77.89
2022-12-08T06:30:58.840Z,78.02
2022-12-08T06:33:39.655Z,77.78
2022-12-08T06:36:22.857Z,77.47
2022-12-08T06:39:03.677Z,77.30
2022-12-08T06:42:03.184Z,77.05
2022-12-08T06:44:45.655Z,76.72
2022-12-08T06:47:29.792Z,76.57
2022-12-08T06:50:12.639Z,76.64
2022-12-08T06:53:05.208Z,76.59
2022-12-08T06:55:58.834Z,76.57
2022-12-08T06:58:52.311Z,76.44
2022-12-08T07:01:27.321Z,76.52
2022-12-08T07:04:15.864Z,76.55
2022-12-08T07:06:51.316Z,76.56
2022-12-08T07:09:39.839Z,76.75
2022-12-08T07:12:34.846Z,76.79
2022-12-08T07:15:23.724Z,77.05
2022-12-08T07:18:00.304Z,77.34
2022-12-08T07:20:48.648Z,77.58
2022-12-08T07:23:30.640Z,77.80
2022-12-08T07:26:26.644Z,77.83
2022-12-08T07:29:26.041Z,77.96
2022-12-08T07:32:21.694Z,77.96
2022-12-08T07:35:09.838Z,78.03
2022-12-08T07:37:52.745Z,78.20
2022-12-08T07:40:40.834Z,77.99
2022-12-08T07:43:15.919Z,77.67
2022-12-08T07:46:03.896Z,77.48
2022-12-08T07:48:38.971Z,77.24
2022-12-08T07:51:27.841Z,77.38
2022-12-08T07:54:03.194Z,77.33
2022-12-08T07:56:50.868Z,77.17
2022-12-08T07:59:26.910Z,77.23
2022-12-08T08:02:25.680Z,77.44
2022-12-08T08:05:16.090Z,77.35
2022-12-08T08:07:51.267Z,77.30
2022-12-08T08:10:39.643Z,77.29
2022-12-08T08:13:20.864Z,77.10
2022-12-08T08:16:08.942Z,76.94
2022-12-08T08:19:00.725Z,76.87
2022-12-08T08:21:46.954Z,76.50
2022-12-08T08:24:31.840Z,76.52
2022-12-08T08:27:26.625Z,76.25
2022-12-08T08:30:20.722Z,75.95
2022-12-08T08:32:56.792Z,75.58
2022-12-08T08:35:44.841Z,74.40
2022-12-08T08:38:19.969Z,73.61
2022-12-08T08:41:10.127Z,73.14
2022-12-08T08:43:45.804Z,72.40
2022-12-08T08:46:33.927Z,72.29
2022-12-08T08:49:09.161Z,72.14
2022-12-08T08:51:57.162Z,72.04
2022-12-08T08:54:31.946Z,71.14
2022-12-08T08:57:25.245Z,70.92
2022-12-08T09:00:08.747Z,71.28
2022-12-08T09:03:03.839Z,71.45
2022-12-08T09:05:51.865Z,71.01
2022-12-08T09:08:33.900Z,70.81
2022-12-08T09:11:30.813Z,70.57
2022-12-08T09:14:21.632Z,70.58
2022-12-08T09:16:56.766Z,70.07
2022-12-08T09:19:44.621Z,70.04
2022-12-08T09:22:25.780Z,69.94
2022-12-08T09:25:06.611Z,69.16
2022-12-08T09:27:54.626Z,69.48
2022-12-08T09:30:49.682Z,69.33
2022-12-08T09:33:37.637Z,69.28
2022-12-08T09:36:19.815Z,68.65
2022-12-08T09:39:01.575Z,68.76
2022-12-08T09:41:56.733Z,68.94
2022-12-08T09:44:48.053Z,69.28
2022-12-08T09:47:42.744Z,69.15
2022-12-08T09:50:20.796Z,68.56
2022-12-08T09:53:22.715Z,68.76
2022-12-08T09:55:59.898Z,68.61
2022-12-08T09:59:06.676Z,69.07
2022-12-08T10:01:44.042Z,69.52
2022-12-08T10:04:34.729Z,69.25
2022-12-08T10:07:24.355Z,68.90
2022-12-08T10:10:18.727Z,68.92
2022-12-08T10:13:25.199Z,68.69
2022-12-08T10:16:33.720Z,68.28
2022-12-08T10:19:14.982Z,68.37
2022-12-08T10:22:03.617Z,68.31
2022-12-08T10:24:55.197Z,68.20
2022-12-08T10:27:42.628Z,68.59
2022-12-08T10:30:37.702Z,68.85
2022-12-08T10:33:28.610Z,68.69
2022-12-08T10:36:05.068Z,68.63
2022-12-08T10:38:52.612Z,68.27
2022-12-08T10:41:34.703Z,67.94
2022-12-08T10:44:23.601Z,67.53
2022-12-08T10:46:58.810Z,67.63
2022-12-08T10:49:46.600Z,67.85
2022-12-08T10:52:37.622Z,67.75
2022-12-08T10:55:34.692Z,67.95
2022-12-08T10:58:40.998Z,68.00
2022-12-08T11:01:24.815Z,67.84
2022-12-08T11:04:20.597Z,68.24
2022-12-08T11:06:56.748Z,68.28
2022-12-08T11:09:47.606Z,68.32
2022-12-08T11:12:23.752Z,68.77
2022-12-08T11:15:11.601Z,68.86
2022-12-08T11:17:57.555Z,68.76
2022-12-08T11:20:46.608Z,68.95
2022-12-08T11:23:30.902Z,69.00
2022-12-08T11:26:33.669Z,69.01
2022-12-08T11:29:28.583Z,68.92
2022-12-08T11:32:20.612Z,69.14
2022-12-08T11:35:08.589Z,69.14
2022-12-08T11:38:20.459Z,69.16
2022-12-08T11:41:17.020Z,69.46
2022-12-08T11:44:12.762Z,69.27
2022-12-08T11:47:05.604Z,69.50
2022-12-08T11:49:42.120Z,70.02
2022-12-08T11:52:51.605Z,70.28
2022-12-08T11:55:49.688Z,69.93
2022-12-08T11:58:57.611Z,69.72
2022-12-08T12:01:36.739Z,69.52
2022-12-08T12:04:32.608Z,69.70
2022-12-08T12:07:26.737Z,70.00
2022-12-08T12:10:29.612Z,70.05
2022-12-08T12:13:10.792Z,69.52
2022-12-08T12:15:58.585Z,67.37
2022-12-08T12:18:36.870Z,66.69
2022-12-08T12:21:35.583Z,66.43
2022-12-08T12:24:28.325Z,66.38
2022-12-08T12:27:28.596Z,65.95
2022-12-08T12:30:36.624Z,66.39
2022-12-08T12:33:31.653Z,66.51
2022-12-08T12:36:14.448Z,66.40
2022-12-08T12:39:12.593Z,66.41
2022-12-08T12:41:50.955Z,66.41
2022-12-08T12:44:41.653Z,66.50
2022-12-08T12:47:44.950Z,66.69
2022-12-08T12:50:47.603Z,65.97
2022-12-08T12:53:21.980Z,66.09
2022-12-08T12:56:16.602Z,66.96
2022-12-08T12:58:54.149Z,67.61
2022-12-08T13:02:00.628Z,66.75
2022-12-08T13:04:37.988Z,66.76
2022-12-08T13:07:34.583Z,67.50
2022-12-08T13:10:19.650Z,68.42
2022-12-08T13:13:25.574Z,66.58
2022-12-08T13:16:19.431Z,65.87
2022-12-08T13:19:17.574Z,67.32
2022-12-08T13:21:52.096Z,66.74
2022-12-08T13:24:39.600Z,66.92
2022-12-08T13:27:20.576Z,67.90
2022-12-08T13:31:00.649Z,68.41
2022-12-08T13:33:48.572Z,67.71
2022-12-08T13:36:33.723Z,67.65
2022-12-08T13:39:27.567Z,67.84
2022-12-08T13:42:16.584Z,68.08
2022-12-08T13:45:27.992Z,68.52
2022-12-08T13:56:24.784Z,68.85
2022-12-08T13:58:02.802Z,69.72
2022-12-08T14:00:43.606Z,70.64
2022-12-08T14:03:25.724Z,71.14
2022-12-08T14:06:12.707Z,71.23
2022-12-08T14:09:02.581Z,71.21
2022-12-08T14:11:54.582Z,70.88
2022-12-08T14:15:03.216Z,70.88
2022-12-08T14:17:46.928Z,70.71
2022-12-08T14:21:18.843Z,70.65
2022-12-08T14:23:44.834Z,70.37
2022-12-08T14:26:32.851Z,70.33
2022-12-08T14:29:09.965Z,70.51
2022-12-08T14:31:57.633Z,70.29
2022-12-08T14:34:46.581Z,70.23
2022-12-08T14:37:28.781Z,70.05
2022-12-08T14:40:14.427Z,69.92
2022-12-08T14:43:13.867Z,69.74
2022-12-08T14:45:58.135Z,69.43
2022-12-08T14:48:45.572Z,69.28
2022-12-08T14:51:19.962Z,69.26
2022-12-08T14:54:11.625Z,69.32
2022-12-08T14:57:08.565Z,69.34
2022-12-08T14:59:56.573Z,69.47
2022-12-08T15:02:34.755Z,69.71
2022-12-08T15:05:25.651Z,69.54
2022-12-08T15:08:05.877Z,69.63
2022-12-08T15:10:54.616Z,69.61
2022-12-08T15:13:31.667Z,69.49
2022-12-08T15:16:48.641Z,69.66
2022-12-08T15:19:37.861Z,69.33
2022-12-08T15:22:29.799Z,69.33
2022-12-08T15:25:16.140Z,69.29
2022-12-08T15:27:59.629Z,69.22
2022-12-08T15:30:40.764Z,69.16
2022-12-08T15:33:21.662Z,69.20
2022-12-08T15:36:03.773Z,69.20
2022-12-08T15:38:51.629Z,69.17
2022-12-08T15:41:26.745Z,69.48
2022-12-08T15:44:16.565Z,69.61
2022-12-08T15:46:51.984Z,69.64
2022-12-08T15:49:44.411Z,69.72
2022-12-08T15:52:25.792Z,69.86
2022-12-08T15:55:13.654Z,70.01
2022-12-08T16:01:01.664Z,70.41
2022-12-08T16:09:51.076Z,70.07
2022-12-08T16:13:55.702Z,69.99
2022-12-08T16:16:00.400Z,69.98
2022-12-08T16:18:50.576Z,69.92
2022-12-08T16:24:38.605Z,69.96
2022-12-08T16:28:00.384Z,69.98
2022-12-08T16:30:30.865Z,70.19
2022-12-08T16:33:13.950Z,70.29
2022-12-08T16:35:57.564Z,70.39
2022-12-08T16:38:39.109Z,70.56
2022-12-08T16:41:42.761Z,70.51
2022-12-08T16:44:32.769Z,70.61
2022-12-08T16:47:18.577Z,70.81
2022-12-08T16:50:07.569Z,70.78
2022-12-08T16:52:48.556Z,71.07
2022-12-08T16:55:29.701Z,71.14
2022-12-08T16:58:10.569Z,71.28
2022-12-08T17:00:51.715Z,71.19
2022-12-08T17:03:33.763Z,71.26
2022-12-08T17:06:29.992Z,71.24
2022-12-08T17:09:13.587Z,71.22
2022-12-08T17:12:01.843Z,71.32
2022-12-08T17:14:46.987Z,71.45
2022-12-08T17:17:34.833Z,71.59
2022-12-08T17:20:16.188Z,71.77
2022-12-08T17:23:10.856Z,71.75
2022-12-08T17:26:16.587Z,71.82
2022-12-08T17:29:11.571Z,71.95
2022-12-08T17:32:06.753Z,72.01
2022-12-08T17:34:54.702Z,72.01
2022-12-08T17:37:30.742Z,72.02
2022-12-08T17:40:19.644Z,72.10
2022-12-08T17:42:57.724Z,72.17
2022-12-08T17:45:52.626Z,72.15
2022-12-08T17:48:27.670Z,72.12
2022-12-08T17:51:16.561Z,72.03
2022-12-08T17:53:51.733Z,72.03
2022-12-08T17:56:39.732Z,72.01
2022-12-08T17:59:21.542Z,72.03
2022-12-08T18:02:17.816Z,72.01
2022-12-08T18:05:15.299Z,72.23
2022-12-08T18:08:11.814Z,72.20
2022-12-08T18:11:02.023Z,72.37
2022-12-08T18:13:45.745Z,72.57
2022-12-08T18:16:29.247Z,72.91
2022-12-08T18:19:18.529Z,73.22
2022-12-08T18:21:53.005Z,73.23
2022-12-08T18:24:41.530Z,73.38
2022-12-08T18:27:15.996Z,73.43
2022-12-08T18:30:04.185Z,73.52
2022-12-08T18:32:46.811Z,73.46
2022-12-08T18:35:35.563Z,73.46
2022-12-08T18:38:09.983Z,73.38
2022-12-08T18:40:57.556Z,73.58
2022-12-08T18:43:40.736Z,73.47
2022-12-08T18:46:22.743Z,73.53
2022-12-08T18:49:04.030Z,73.74
2022-12-08T18:51:46.899Z,73.56
2022-12-08T18:54:57.781Z,73.67
2022-12-08T18:57:37.753Z,73.70
2022-12-08T19:00:33.583Z,73.70
2022-12-08T19:03:21.545Z,73.80
2022-12-08T19:05:58.040Z,73.70
2022-12-08T19:08:45.600Z,73.64
2022-12-08T19:11:33.708Z,73.58
2022-12-08T19:14:28.468Z,73.51
2022-12-08T19:17:11.673Z,73.47
2022-12-08T19:19:59.549Z,73.31
2022-12-08T19:22:34.658Z,73.17
2022-12-08T19:25:22.671Z,73.12
2022-12-08T19:28:05.598Z,73.38
2022-12-08T19:31:00.565Z,73.42
2022-12-08T19:33:48.761Z,73.30
2022-12-08T19:36:26.308Z,73.14
2022-12-08T19:39:35.069Z,73.01
2022-12-08T19:42:36.012Z,73.28
2022-12-08T19:45:28.601Z,73.36
2022-12-08T19:48:03.734Z,73.31
2022-12-08T19:50:54.704Z,73.16
2022-12-08T19:53:32.031Z,73.14
2022-12-08T19:56:19.517Z,72.75
2022-12-08T19:59:02.539Z,72.64
2022-12-08T20:01:51.723Z,72.72
2022-12-08T20:04:33.634Z,72.82
2022-12-08T20:07:28.589Z,72.88
2022-12-08T20:10:22.513Z,72.80
2022-12-08T20:13:17.627Z,72.90
2022-12-08T20:16:05.781Z,72.77
2022-12-08T20:18:44.906Z,72.86
2022-12-08T20:21:32.522Z,72.75
2022-12-08T20:24:07.818Z,72.74
2022-12-08T20:26:57.972Z,72.81
2022-12-08T20:29:46.499Z,72.60
2022-12-08T20:32:27.681Z,72.49
2022-12-08T20:35:15.525Z,72.37
2022-12-08T20:37:51.091Z,71.89
2022-12-08T20:40:40.547Z,71.70
2022-12-08T20:43:15.031Z,71.68
2022-12-08T20:46:04.608Z,71.65
2022-12-08T20:48:39.988Z,71.51
2022-12-08T20:51:32.580Z,71.48
2022-12-08T20:54:07.021Z,71.61
2022-12-08T20:56:58.745Z,71.56
2022-12-08T20:59:34.245Z,71.57
2022-12-08T21:02:24.624Z,71.43
2022-12-08T21:05:07.999Z,71.36
2022-12-08T21:07:55.572Z,71.51
2022-12-08T21:10:43.542Z,71.42
2022-12-08T21:13:31.542Z,71.55
2022-12-08T21:16:06.619Z,71.70
2022-12-08T21:18:57.634Z,71.11
2022-12-08T21:21:33.828Z,71.18
2022-12-08T21:24:22.562Z,71.10
2022-12-08T21:27:03.667Z,70.93
2022-12-08T21:29:58.539Z,70.86
2022-12-08T21:32:46.881Z,70.95
2022-12-08T21:35:21.894Z,70.71
2022-12-08T21:38:13.068Z,70.64
2022-12-08T21:40:47.668Z,70.68
2022-12-08T21:43:35.542Z,71.04
2022-12-08T21:46:23.159Z,71.21
2022-12-08T21:49:04.509Z,71.20
2022-12-08T21:51:53.759Z,71.09
2022-12-08T21:54:35.867Z,71.08
2022-12-08T21:57:23.654Z,70.89
2022-12-08T21:59:57.996Z,70.57
2022-12-08T22:02:45.768Z,70.58
2022-12-08T22:05:20.982Z,70.25
2022-12-08T22:08:08.597Z,70.01
2022-12-08T22:10:54.659Z,69.94
2022-12-08T22:13:42.776Z,70.32
2022-12-08T22:16:24.765Z,70.43
2022-12-08T22:19:13.580Z,70.46
2022-12-08T22:21:48.129Z,70.47
2022-12-08T22:24:36.735Z,70.29
2022-12-08T22:27:12.026Z,70.36
2022-12-08T22:30:01.621Z,70.30
2022-12-08T22:32:36.466Z,70.20
2022-12-08T22:35:24.656Z,70.25
2022-12-08T22:37:59.027Z,70.54
2022-12-08T22:40:46.552Z,70.92
2022-12-08T22:43:22.733Z,70.93
2022-12-08T22:46:13.133Z,70.94
2022-12-08T22:48:55.744Z,70.46
2022-12-08T22:51:37.788Z,70.20
2022-12-08T22:54:19.562Z,70.24
2022-12-08T22:57:00.703Z,70.14
2022-12-08T22:59:41.924Z,69.96
2022-12-08T23:02:30.908Z,69.54
2022-12-08T23:05:16.831Z,69.54
2022-12-08T23:07:58.808Z,69.87
2022-12-08T23:10:47.765Z,69.85
2022-12-08T23:13:56.892Z,69.89
2022-12-08T23:17:05.497Z,70.11
2022-12-08T23:20:09.449Z,70.46
2022-12-08T23:23:14.693Z,70.53
2022-12-08T23:26:38.672Z,70.12
2022-12-08T23:29:51.025Z,70.65
2022-12-08T23:38:07.524Z,70.45
2022-12-08T23:41:44.490Z,70.03
2022-12-08T23:44:19.807Z,69.66
2022-12-08T23:47:07.910Z,69.59
2022-12-08T23:49:42.838Z,69.66
2022-12-08T23:52:30.830Z,69.58
2022-12-08T23:55:12.692Z,69.09
2022-12-08T23:58:07.826Z,68.89
